Hansa Marburg — LXHM — position and weather

sailwx.info

Track history (hours):
 
Tides and Currents Weather Stations Pressure Air Temp Water Temp Dewpoint Dewpoint Depression Visibility Wind Speed Wind Dir Waves Ship Positions

Hansa Marburg

Last reported at 2018-Feb-18 23:32 UTC. Time now 2018-Feb-19 11:31 UTC.
Position N 35°49' E 014°33'.

Length 175 m; draft 9.9 m.

Type: Ship (hazmat cat A). MMSI: 253161000.

Date/timePositionNaut miles runAvg speedWind from/ knotsBaromVisibWave heightAir tempDewpointWater temp
2018-Feb-18 23:32N 35°49' E 014°33'0 7.5
2018-Feb-18 23:28N 35°49' E 014°33'2 3.8
2018-Feb-18 22:59N 35°48' E 014°35'3 5.8
2018-Feb-18 22:30N 35°48' E 014°38'4 7.8
2018-Feb-18 21:58N 35°50' E 014°43'0 0.0
2018-Feb-18 21:28N 35°50' E 014°43'0 0.0
2018-Feb-18 20:58N 35°50' E 014°43'0 0.0
2018-Feb-18 20:28N 35°50' E 014°43'0 0.0
2018-Feb-18 19:58N 35°50' E 014°43'0 0.0
2018-Feb-18 19:28N 35°50' E 014°43'0 0.0
2018-Feb-18 18:58N 35°50' E 014°43'0 0.0
2018-Feb-18 18:28N 35°50' E 014°43'0 0.0
2018-Feb-18 17:28N 35°50' E 014°43'0 0.0
2018-Feb-18 16:58N 35°50' E 014°43'0 0.0
2018-Feb-18 16:28N 35°50' E 014°43'0 0.0
2018-Feb-18 15:58N 35°50' E 014°43'0 0.0
2018-Feb-18 15:28N 35°50' E 014°43'0 0.0
2018-Feb-18 14:58N 35°50' E 014°43'0 0.0
2018-Feb-18 14:28N 35°50' E 014°43'0 0.0
2018-Feb-18 12:52N 35°50' E 014°43'0 0.1
2018-Feb-18 12:28N 35°50' E 014°43'0 0.0
2018-Feb-18 11:58N 35°50' E 014°43'0 0.0
2018-Feb-18 11:28N 35°50' E 014°43'0 0.0
2018-Feb-17 23:47N 35°50' E 014°43'0 0.1
2018-Feb-17 23:29N 35°50' E 014°43'0 0.0
2018-Feb-17 22:58N 35°50' E 014°43'0 0.0
2018-Feb-17 22:27N 35°50' E 014°43'1 1.7
2018-Feb-17 21:49N 35°51' E 014°43'5 9.5
2018-Feb-17 21:17N 35°56' E 014°42'412.4
2018-Feb-17 20:59N 36°00' E 014°42'135 6.8
2018-Feb-17 01:20N 38°08' E 015°35'618.2
2018-Feb-17 00:59N 38°14' E 015°36'813.0
2018-Feb-17 00:23N 38°22' E 015°37'717.6
2018-Feb-17 00:00N 38°28' E 015°34'917.7
2018-Feb-16 23:30N 38°37' E 015°30'7517.2
2018-Feb-16 19:07N 39°47' E 014°54'716.8
2018-Feb-16 18:42N 39°53' E 014°51'317.1
2018-Feb-16 18:30N 39°56' E 014°49'242 6.5
2018-Feb-15 05:23N 42°24' E 010°35'916.5
2018-Feb-15 04:52N 42°29' E 010°26'816.7
2018-Feb-15 04:24N 42°34' E 010°18'3414.3
2018-Feb-15 02:02N 43°07' E 010°04'017.6
2018-Feb-15 02:00N 43°07' E 010°04'917.1
2018-Feb-15 01:30N 43°16' E 010°06'816.9
2018-Feb-15 01:01N 43°24' E 010°09'816.5
2018-Feb-15 00:30N 43°31' E 010°13'4 8.6
2018-Feb-15 00:00N 43°34' E 010°18'0 0.6
2018-Feb-14 23:28N 43°34' E 010°18'0 0.0
2018-Feb-14 22:58N 43°34' E 010°18'0 0.0
2018-Feb-14 22:28N 43°34' E 010°18'0 0.0
2018-Feb-14 21:58N 43°34' E 010°18'0 0.0
2018-Feb-14 21:28N 43°34' E 010°18'0 0.0
2018-Feb-14 20:58N 43°34' E 010°18'0 0.0
2018-Feb-14 20:28N 43°34' E 010°18'0 0.0
2018-Feb-14 19:58N 43°34' E 010°18'0 0.0
2018-Feb-14 19:28N 43°34' E 010°18'0 0.0
2018-Feb-14 18:58N 43°34' E 010°18'0 0.0
2018-Feb-14 18:28N 43°34' E 010°18'0 0.0
2018-Feb-14 17:58N 43°34' E 010°18'0 0.0
2018-Feb-14 17:22N 43°34' E 010°18'0 0.0
2018-Feb-14 16:58N 43°34' E 010°18'0 0.0
2018-Feb-14 16:28N 43°34' E 010°18'0 0.0
2018-Feb-14 15:58N 43°34' E 010°18'0 0.0
2018-Feb-14 15:28N 43°34' E 010°18'0 0.0
2018-Feb-14 15:00N 43°34' E 010°18'2 4.0
2018-Feb-14 14:30N 43°32' E 010°17'1 2.4
2018-Feb-14 14:00N 43°31' E 010°16'2 4.2
2018-Feb-14 13:30N 43°29' E 010°15'1 0.2
2018-Feb-14 09:32N 43°30' E 010°15'0 7.1
2018-Feb-14 09:30N 43°29' E 010°14'713.1
2018-Feb-14 09:01N 43°26' E 010°07'917.0
2018-Feb-14 08:30N 43°20' E 009°58'917.1
2018-Feb-14 08:01N 43°17' E 009°47'917.5
2018-Feb-14 07:30N 43°16' E 009°35'917.6
2018-Feb-14 07:00N 43°15' E 009°23'917.3
2018-Feb-14 06:30N 43°14' E 009°11'8417.8
2018-Feb-14 01:45N 43°02' E 007°17'818.2
2018-Feb-14 01:17N 43°01' E 007°05'8017.0
2018-Feb-13 20:36N 43°09' E 005°17'217.5
2018-Feb-13 20:29N 43°10' E 005°15'714.4
2018-Feb-13 19:58N 43°16' E 005°10'815.8
2018-Feb-13 19:28N 43°21' E 005°18'1 2.3
2018-Feb-13 18:59N 43°21' E 005°20'0 0.0
2018-Feb-13 18:28N 43°21' E 005°20'0 0.0
2018-Feb-13 17:24N 43°21' E 005°20'0 0.0
2018-Feb-13 17:00N 43°21' E 005°20'0 0.0
2018-Feb-13 15:54N 43°21' E 005°20'0 0.0
2018-Feb-13 14:30N 43°21' E 005°20'0 0.0
2018-Feb-13 13:51N 43°21' E 005°20'0 0.0
2018-Feb-13 13:30N 43°21' E 005°20'0 0.0
2018-Feb-13 13:00N 43°21' E 005°20'0 0.0
2018-Feb-13 12:30N 43°21' E 005°20'0 0.0
2018-Feb-13 08:12N 43°21' E 005°20'0 0.0
2018-Feb-13 08:00N 43°21' E 005°20'0 0.1
2018-Feb-13 07:28N 43°21' E 005°20'2 4.5
2018-Feb-13 06:59N 43°20' E 005°17'4 9.1
2018-Feb-13 06:30N 43°17' E 005°13'713.5
2018-Feb-13 06:00N 43°11' E 005°10'  
Track history (hours):
 
Tides and Currents Weather Stations Pressure Air Temp Water Temp Dewpoint Dewpoint Depression Visibility Wind Speed Wind Dir Waves Ship Positions

Hansa Marburg

Last reported at 2018-Feb-18 23:32 UTC. Time now 2018-Feb-19 11:31 UTC.
Position N 35°49' E 014°33'.

Length 175 m; draft 9.9 m.

Type: Ship (hazmat cat A). MMSI: 253161000.

Date/timePositionNaut miles runAvg speedWind from/ knotsBaromVisibWave heightAir tempDewpointWater temp
2018-Feb-18 23:32N 35°49' E 014°33'0 7.5
2018-Feb-18 23:28N 35°49' E 014°33'2 3.8
2018-Feb-18 22:59N 35°48' E 014°35'3 5.8
2018-Feb-18 22:30N 35°48' E 014°38'4 7.8
2018-Feb-18 21:58N 35°50' E 014°43'0 0.0
2018-Feb-18 21:28N 35°50' E 014°43'0 0.0
2018-Feb-18 20:58N 35°50' E 014°43'0 0.0
2018-Feb-18 20:28N 35°50' E 014°43'0 0.0
2018-Feb-18 19:58N 35°50' E 014°43'0 0.0
2018-Feb-18 19:28N 35°50' E 014°43'0 0.0
2018-Feb-18 18:58N 35°50' E 014°43'0 0.0
2018-Feb-18 18:28N 35°50' E 014°43'0 0.0
2018-Feb-18 17:28N 35°50' E 014°43'0 0.0
2018-Feb-18 16:58N 35°50' E 014°43'0 0.0
2018-Feb-18 16:28N 35°50' E 014°43'0 0.0
2018-Feb-18 15:58N 35°50' E 014°43'0 0.0
2018-Feb-18 15:28N 35°50' E 014°43'0 0.0
2018-Feb-18 14:58N 35°50' E 014°43'0 0.0
2018-Feb-18 14:28N 35°50' E 014°43'0 0.0
2018-Feb-18 12:52N 35°50' E 014°43'0 0.1
2018-Feb-18 12:28N 35°50' E 014°43'0 0.0
2018-Feb-18 11:58N 35°50' E 014°43'0 0.0
2018-Feb-18 11:28N 35°50' E 014°43'0 0.0
2018-Feb-17 23:47N 35°50' E 014°43'0 0.1
2018-Feb-17 23:29N 35°50' E 014°43'0 0.0
2018-Feb-17 22:58N 35°50' E 014°43'0 0.0
2018-Feb-17 22:27N 35°50' E 014°43'1 1.7
2018-Feb-17 21:49N 35°51' E 014°43'5 9.5
2018-Feb-17 21:17N 35°56' E 014°42'412.4
2018-Feb-17 20:59N 36°00' E 014°42'135 6.8
2018-Feb-17 01:20N 38°08' E 015°35'618.2
2018-Feb-17 00:59N 38°14' E 015°36'813.0
2018-Feb-17 00:23N 38°22' E 015°37'717.6
2018-Feb-17 00:00N 38°28' E 015°34'917.7
2018-Feb-16 23:30N 38°37' E 015°30'7517.2
2018-Feb-16 19:07N 39°47' E 014°54'716.8
2018-Feb-16 18:42N 39°53' E 014°51'317.1
2018-Feb-16 18:30N 39°56' E 014°49'242 6.5
2018-Feb-15 05:23N 42°24' E 010°35'916.5
2018-Feb-15 04:52N 42°29' E 010°26'816.7
2018-Feb-15 04:24N 42°34' E 010°18'3414.3
2018-Feb-15 02:02N 43°07' E 010°04'017.6
2018-Feb-15 02:00N 43°07' E 010°04'917.1
2018-Feb-15 01:30N 43°16' E 010°06'816.9
2018-Feb-15 01:01N 43°24' E 010°09'816.5
2018-Feb-15 00:30N 43°31' E 010°13'4 8.6
2018-Feb-15 00:00N 43°34' E 010°18'0 0.6
2018-Feb-14 23:28N 43°34' E 010°18'0 0.0
2018-Feb-14 22:58N 43°34' E 010°18'0 0.0
2018-Feb-14 22:28N 43°34' E 010°18'0 0.0
2018-Feb-14 21:58N 43°34' E 010°18'0 0.0
2018-Feb-14 21:28N 43°34' E 010°18'0 0.0
2018-Feb-14 20:58N 43°34' E 010°18'0 0.0
2018-Feb-14 20:28N 43°34' E 010°18'0 0.0
2018-Feb-14 19:58N 43°34' E 010°18'0 0.0
2018-Feb-14 19:28N 43°34' E 010°18'0 0.0
2018-Feb-14 18:58N 43°34' E 010°18'0 0.0
2018-Feb-14 18:28N 43°34' E 010°18'0 0.0
2018-Feb-14 17:58N 43°34' E 010°18'0 0.0
2018-Feb-14 17:22N 43°34' E 010°18'0 0.0
2018-Feb-14 16:58N 43°34' E 010°18'0 0.0
2018-Feb-14 16:28N 43°34' E 010°18'0 0.0
2018-Feb-14 15:58N 43°34' E 010°18'0 0.0
2018-Feb-14 15:28N 43°34' E 010°18'0 0.0
2018-Feb-14 15:00N 43°34' E 010°18'2 4.0
2018-Feb-14 14:30N 43°32' E 010°17'1 2.4
2018-Feb-14 14:00N 43°31' E 010°16'2 4.2
2018-Feb-14 13:30N 43°29' E 010°15'1 0.2
2018-Feb-14 09:32N 43°30' E 010°15'0 7.1
2018-Feb-14 09:30N 43°29' E 010°14'713.1
2018-Feb-14 09:01N 43°26' E 010°07'917.0
2018-Feb-14 08:30N 43°20' E 009°58'917.1
2018-Feb-14 08:01N 43°17' E 009°47'917.5
2018-Feb-14 07:30N 43°16' E 009°35'917.6
2018-Feb-14 07:00N 43°15' E 009°23'917.3
2018-Feb-14 06:30N 43°14' E 009°11'8417.8
2018-Feb-14 01:45N 43°02' E 007°17'818.2
2018-Feb-14 01:17N 43°01' E 007°05'8017.0
2018-Feb-13 20:36N 43°09' E 005°17'217.5
2018-Feb-13 20:29N 43°10' E 005°15'714.4
2018-Feb-13 19:58N 43°16' E 005°10'815.8
2018-Feb-13 19:28N 43°21' E 005°18'1 2.3
2018-Feb-13 18:59N 43°21' E 005°20'0 0.0
2018-Feb-13 18:28N 43°21' E 005°20'0 0.0
2018-Feb-13 17:24N 43°21' E 005°20'0 0.0
2018-Feb-13 17:00N 43°21' E 005°20'0 0.0
2018-Feb-13 15:54N 43°21' E 005°20'0 0.0
2018-Feb-13 14:30N 43°21' E 005°20'0 0.0
2018-Feb-13 13:51N 43°21' E 005°20'0 0.0
2018-Feb-13 13:30N 43°21' E 005°20'0 0.0
2018-Feb-13 13:00N 43°21' E 005°20'0 0.0
2018-Feb-13 12:30N 43°21' E 005°20'0 0.0
2018-Feb-13 08:12N 43°21' E 005°20'0 0.0
2018-Feb-13 08:00N 43°21' E 005°20'0 0.1
2018-Feb-13 07:28N 43°21' E 005°20'2 4.5
2018-Feb-13 06:59N 43°20' E 005°17'4 9.1
2018-Feb-13 06:30N 43°17' E 005°13'713.5
2018-Feb-13 06:00N 43°11' E 005°10'  

Dump ship's entire track history